メインページ
METAR-TAF:

METAR-TAF

空港 :

ベルリン・テーゲル空港

ベルリン, ドイツ

緯度: 52-34N, 経度: 013-19E, 海抜: 37m

現時点の気象観測

当レポートは28分前の10:20(UTC)に作成
東/南東の風 12kt、東/北東から南/南東の間で変化する
気温 22°C
湿度 33%
気圧 1021 hPa
視程10km以上
1,500メートル以下は雲なし、積乱雲なし

METAR: EDDT 211020Z 11012KT 070V160 CAVOK 22/05 Q1021 TEMPO 10015G25KT

時間: 12:48 (10:48 UTC)

予報

当レポートは5時間48分前の05:00(UTC)に作成
予報は21日の 06時(UTC)から 22日の 06時(UTC)まで有効
東/北東の風 10kt
視程10km以上
1,500メートル以下は雲なし、積乱雲なし
確率 30% :
21日の 11時(UTC)から 21日の 18時(UTC)まで一時的に
の風 15kt、最大25ktの突風を伴う
21日の 17時(UTC)から 21日の 20時(UTC)まで徐々に
東/北東の風 5kt

TAF: EDDT 210500Z 2106/2206 07010KT CAVOK PROB30 TEMPO 2111/2118 10015G25KT BECMG 2117/2120 07005KT

4,000以上の空港の気象観測と天気予報(METAR報とTAF報)

利用可能な観測所は地図上に黄色い丸と赤い丸で示す。

丸の上にカーソルを重ねると観測所名を参照できる。

次にクリックすると気象観測と天気予報を参照できる。

マップの切り替え:黒色「×」印の緑ボタンをクリックして拡大、「-」印の緑ボタンをクリックして縮小、緑色の三角印をクリックして隣りの地図に切り替え


METAR-TAF: